Time;durP1;ratioP1;P1;durP2;ratioP2;P2;SDS_P1;SDS_P2;PMS_P1;PMS_P2;Temp;Humidity;BMP_temperature;BMP_pressure;BME280_temperature;BME280_humidity;BME280_pressure;Samples;Min_cycle;Max_cycle;Signal;HPM_P1;HPM_P2
2021/11/07 00:04:40;;;;;;;0.10;0.10;;;;;;;13.97;71.40;101767.22;5039572;28;20037;-87
2021/11/07 00:07:26;;;;;;;0.10;0.10;;;;;;;13.90;71.53;101770.00;5047953;28;20029;-84
2021/11/07 00:12:42;;;;;;;0.30;0.30;;;;;;;14.06;71.01;101745.75;5043684;28;20046;-87
2021/11/07 00:15:11;;;;;;;0.10;0.10;;;;;;;14.09;71.08;101745.69;5045803;28;20025;-87
2021/11/07 00:17:38;;;;;;;0.10;0.10;;;;;;;14.09;71.06;101753.66;5043181;28;20445;-88
2021/11/07 00:20:09;;;;;;;0.10;0.10;;;;;;;14.07;71.14;101766.16;5037484;28;20025;-82
2021/11/07 00:25:24;;;;;;;0.10;0.10;;;;;;;14.14;70.76;101743.78;5053494;28;20971;-82
2021/11/07 00:27:56;;;;;;;0.10;0.10;;;;;;;14.13;71.03;101739.41;5046521;28;20116;-85
2021/11/07 00:30:34;;;;;;;0.10;0.10;;;;;;;14.20;70.69;101735.66;5048412;28;20560;-87
2021/11/07 00:33:13;;;;;;;0.00;0.00;;;;;;;14.21;70.61;101729.44;5042216;28;20021;-88
2021/11/07 00:35:55;;;;;;;0.50;0.50;;;;;;;14.18;70.65;101726.84;5039061;28;20087;-88
2021/11/07 00:38:29;;;;;;;0.10;0.10;;;;;;;14.26;70.39;101726.69;5047930;28;20037;-85
2021/11/07 00:41:12;;;;;;;0.10;0.10;;;;;;;14.24;70.64;101734.72;5048806;28;20456;-86
2021/11/07 00:43:46;;;;;;;0.32;0.32;;;;;;;14.30;70.60;101720.38;5047370;28;20495;-83
2021/11/07 00:46:21;;;;;;;0.30;0.30;;;;;;;14.37;70.18;101723.78;5048630;28;20028;-87
2021/11/07 00:48:53;;;;;;;0.10;0.10;;;;;;;14.33;70.14;101724.75;5041801;28;20038;-85
2021/11/07 00:51:44;;;;;;;0.10;0.10;;;;;;;14.44;70.07;101728.06;5048345;28;20029;-88
2021/11/07 00:56:58;;;;;;;0.10;0.10;;;;;;;14.47;70.04;101722.66;5047800;28;20049;-87
2021/11/07 01:02:18;;;;;;;0.22;0.22;;;;;;;14.38;70.31;101714.84;5070290;28;20421;-86
2021/11/07 01:04:47;;;;;;;0.10;0.10;;;;;;;14.37;70.46;101705.13;5059408;28;20037;-86
2021/11/07 01:07:15;;;;;;;0.10;0.10;;;;;;;14.48;70.33;101721.75;5057398;28;20121;-87
2021/11/07 01:09:43;;;;;;;0.10;0.10;;;;;;;14.47;70.45;101717.34;5055656;28;20029;-84
2021/11/07 01:12:10;;;;;;;0.00;0.00;;;;;;;14.52;70.12;101715.44;5065480;28;20538;-85
2021/11/07 01:14:40;;;;;;;0.85;0.85;;;;;;;14.55;70.05;101710.06;5058710;28;20032;-85
2021/11/07 01:17:10;;;;;;;0.10;0.10;;;;;;;14.48;70.67;101708.44;5064805;28;20571;-86
2021/11/07 01:19:42;;;;;;;0.10;0.10;;;;;;;14.51;70.50;101708.34;5059373;28;20036;-86
2021/11/07 01:22:14;;;;;;;0.10;0.10;;;;;;;14.54;70.34;101702.97;5063517;28;20064;-87
2021/11/07 01:24:46;;;;;;;1.65;1.55;;;;;;;14.57;70.23;101696.69;5055524;28;20095;-85
2021/11/07 01:27:20;;;;;;;1.30;1.27;;;;;;;14.57;70.13;101696.69;5080928;28;20052;-86
2021/11/07 01:29:51;;;;;;;0.10;0.10;;;;;;;14.61;70.08;101697.50;5056113;28;20097;-85
2021/11/07 01:32:20;;;;;;;0.10;0.10;;;;;;;14.63;70.04;101695.63;5059427;28;20057;-87
2021/11/07 01:34:59;;;;;;;0.17;0.17;;;;;;;14.54;70.31;101686.97;5059816;28;20135;-84
2021/11/07 01:37:30;;;;;;;0.10;0.10;;;;;;;14.56;70.03;101685.13;5057320;28;20033;-86
2021/11/07 01:40:08;;;;;;;0.20;0.20;;;;;;;14.64;70.10;101682.28;5056351;28;20032;-84
2021/11/07 01:42:37;;;;;;;0.10;0.10;;;;;;;14.72;69.96;101692.81;5050838;28;20510;-86
2021/11/07 01:45:13;;;;;;;0.30;0.30;;;;;;;14.71;70.06;101689.25;5054977;28;20037;-85
2021/11/07 01:47:47;;;;;;;0.13;0.13;;;;;;;14.67;70.16;101678.72;5053608;28;20025;-87
2021/11/07 01:50:13;;;;;;;0.10;0.10;;;;;;;14.60;70.30;101677.94;5054956;28;20033;-86
2021/11/07 01:52:41;;;;;;;0.38;0.38;;;;;;;14.64;69.90;101665.41;5055552;28;20060;-87
2021/11/07 01:55:08;;;;;;;0.55;0.55;;;;;;;14.68;70.06;101667.13;5061217;28;20068;-87
2021/11/07 01:57:36;;;;;;;0.57;0.57;;;;;;;14.56;70.19;101679.78;5053338;28;20484;-85
2021/11/07 02:00:16;;;;;;;0.10;0.10;;;;;;;14.77;69.73;101666.91;5061084;28;20037;-84
2021/11/07 02:02:43;;;;;;;1.15;1.10;;;;;;;14.79;69.73;101649.06;5053653;28;20059;-85
2021/11/07 02:05:09;;;;;;;0.10;0.10;;;;;;;14.76;69.92;101669.59;5052731;28;20492;-86
2021/11/07 02:07:37;;;;;;;0.10;0.10;;;;;;;14.87;69.62;101649.75;5059127;28;20035;-86
2021/11/07 02:10:11;;;;;;;0.32;0.32;;;;;;;14.98;69.28;101643.28;5053519;28;20599;-86
2021/11/07 02:12:39;;;;;;;0.25;0.25;;;;;;;14.93;69.59;101646.06;5042882;28;20033;-85
2021/11/07 02:15:08;;;;;;;0.10;0.10;;;;;;;14.82;69.93;101638.31;5040484;28;20029;-85
2021/11/07 02:17:34;;;;;;;0.10;0.10;;;;;;;14.81;69.87;101631.22;5041258;28;20025;-84
2021/11/07 02:20:06;;;;;;;0.10;0.10;;;;;;;14.94;69.57;101628.25;5043586;28;20144;-86
2021/11/07 02:22:32;;;;;;;0.67;0.67;;;;;;;14.94;69.70;101630.91;5042571;28;20032;-86
2021/11/07 02:24:59;;;;;;;7.10;1.60;;;;;;;14.93;69.65;101621.13;5040581;28;20353;-86
2021/11/07 02:27:25;;;;;;;0.10;0.10;;;;;;;14.78;69.97;101609.97;5048227;28;20086;-86
2021/11/07 02:29:51;;;;;;;0.20;0.20;;;;;;;14.98;69.53;101613.91;5042655;28;20057;-87
2021/11/07 02:32:18;;;;;;;0.10;0.10;;;;;;;14.87;69.75;101620.38;5046816;28;20032;-86
2021/11/07 02:34:44;;;;;;;0.28;0.28;;;;;;;14.93;69.71;101626.47;5040824;28;20029;-86
2021/11/07 02:37:11;;;;;;;0.95;0.95;;;;;;;14.94;69.40;101623.78;5040823;28;20476;-86
2021/11/07 02:39:38;;;;;;;0.10;0.10;;;;;;;14.96;69.36;101629.09;5045524;28;20025;-86
2021/11/07 02:42:06;;;;;;;0.10;0.10;;;;;;;15.04;69.26;101624.41;5050424;28;20035;-86
2021/11/07 02:44:35;;;;;;;1.55;0.68;;;;;;;15.11;68.95;101628.66;5038537;28;20445;-86
2021/11/07 02:47:04;;;;;;;0.40;0.40;;;;;;;15.14;68.94;101617.94;5044680;28;20033;-86
2021/11/07 02:49:30;;;;;;;0.70;0.70;;;;;;;15.17;68.88;101616.97;5040341;28;20362;-87
2021/11/07 02:51:59;;;;;;;0.10;0.10;;;;;;;15.10;68.90;101610.91;5043034;28;20092;-85
2021/11/07 02:54:26;;;;;;;0.30;0.30;;;;;;;15.06;68.90;101603.91;5037304;28;20065;-85
2021/11/07 02:56:55;;;;;;;0.10;0.10;;;;;;;15.11;68.59;101607.31;5040777;28;20036;-85
2021/11/07 02:59:26;;;;;;;0.00;0.00;;;;;;;15.15;68.68;101617.00;5039339;28;20025;-86
2021/11/07 03:01:54;;;;;;;0.10;0.10;;;;;;;15.11;68.55;101609.13;5043926;28;20142;-86
2021/11/07 03:04:22;;;;;;;0.00;0.00;;;;;;;15.18;68.33;101608.03;5041452;28;20035;-86
2021/11/07 03:06:48;;;;;;;1.90;0.85;;;;;;;15.06;68.09;101614.56;5039442;28;20031;-86
2021/11/07 03:09:18;;;;;;;0.10;0.10;;;;;;;15.14;67.66;101627.72;5042252;28;20037;-85
2021/11/07 03:11:45;;;;;;;0.20;0.20;;;;;;;15.08;67.66;101626.09;5040589;28;20385;-86
2021/11/07 03:14:19;;;;;;;0.13;0.13;;;;;;;15.15;67.18;101624.13;5041090;28;20036;-85
2021/11/07 03:16:46;;;;;;;1.85;1.00;;;;;;;15.06;66.21;101614.56;5044662;28;20029;-85
2021/11/07 03:19:14;;;;;;;0.10;0.10;;;;;;;15.02;65.19;101632.47;5040446;28;20104;-85
2021/11/07 03:21:41;;;;;;;0.35;0.35;;;;;;;14.99;65.76;101615.66;5039336;28;20472;-85
2021/11/07 03:24:08;;;;;;;0.20;0.20;;;;;;;14.96;65.36;101621.06;5045056;28;20083;-86
2021/11/07 03:26:37;;;;;;;0.10;0.10;;;;;;;14.86;64.69;101626.63;5040213;28;20427;-85
2021/11/07 03:29:07;;;;;;;0.63;0.63;;;;;;;14.90;65.14;101613.22;5039567;28;20035;-85
2021/11/07 03:31:44;;;;;;;0.10;0.10;;;;;;;14.79;64.90;101625.06;5045595;28;20033;-86
2021/11/07 03:34:23;;;;;;;0.25;0.25;;;;;;;14.81;65.01;101625.88;5036181;28;20044;-85
2021/11/07 03:37:05;;;;;;;0.52;0.52;;;;;;;14.87;63.81;101625.72;5043888;28;20029;-85
2021/11/07 03:39:35;;;;;;;0.17;0.17;;;;;;;14.62;62.63;101619.25;5035880;28;20061;-84
2021/11/07 03:42:04;;;;;;;0.73;0.73;;;;;;;14.60;60.85;101626.38;5037946;28;20088;-86
2021/11/07 03:44:31;;;;;;;0.10;0.10;;;;;;;14.42;60.34;101628.59;5033768;28;20084;-86
2021/11/07 03:46:57;;;;;;;0.10;0.10;;;;;;;14.35;57.58;101610.97;5040057;28;20416;-86
2021/11/07 03:49:24;;;;;;;0.20;0.20;;;;;;;14.45;57.16;101622.31;5039251;28;20030;-85
2021/11/07 03:51:51;;;;;;;0.20;0.20;;;;;;;14.41;58.08;101618.81;5041006;28;20025;-85
2021/11/07 03:54:18;;;;;;;0.10;0.10;;;;;;;14.34;57.67;101615.44;5037087;28;20037;-84
2021/11/07 03:56:45;;;;;;;0.20;0.20;;;;;;;14.28;57.26;101604.03;5044219;28;20080;-86
2021/11/07 03:59:11;;;;;;;0.20;0.20;;;;;;;14.19;54.97;101621.09;5039454;28;20481;-85
2021/11/07 04:01:37;;;;;;;0.35;0.35;;;;;;;14.16;53.38;101611.41;5034949;28;20041;-86
2021/11/07 04:04:06;;;;;;;0.10;0.10;;;;;;;14.08;54.43;101610.69;5036487;28;20484;-85
2021/11/07 04:06:32;;;;;;;0.10;0.10;;;;;;;14.17;53.21;101613.16;5034094;28;20049;-85
2021/11/07 04:09:00;;;;;;;0.10;0.10;;;;;;;14.12;53.44;101609.72;5042826;28;20473;-86
2021/11/07 04:11:27;;;;;;;0.10;0.10;;;;;;;14.20;53.95;101613.06;5038965;28;20042;-85
2021/11/07 04:13:53;;;;;;;0.40;0.40;;;;;;;14.14;53.83;101607.88;5042073;28;20143;-86
2021/11/07 04:16:19;;;;;;;0.10;0.10;;;;;;;14.12;53.48;101608.81;5040241;28;20040;-87
2021/11/07 04:18:46;;;;;;;0.10;0.10;;;;;;;14.06;53.00;101617.84;5042631;28;20025;-86
2021/11/07 04:21:14;;;;;;;0.10;0.10;;;;;;;14.03;54.23;101615.25;5050790;28;20431;-87
2021/11/07 04:23:41;;;;;;;0.10;0.10;;;;;;;14.08;53.97;101629.31;5042139;28;20435;-88
2021/11/07 04:26:07;;;;;;;0.10;0.10;;;;;;;13.96;54.14;101632.28;5035957;28;20038;-87
2021/11/07 04:28:34;;;;;;;0.20;0.20;;;;;;;13.99;54.93;101613.56;5041134;28;20025;-88
2021/11/07 04:31:00;;;;;;;0.10;0.10;;;;;;;13.98;54.47;101626.03;5039560;28;20025;-87
2021/11/07 04:33:27;;;;;;;0.10;0.10;;;;;;;13.90;54.47;101633.28;5048594;28;20104;-87
2021/11/07 04:35:53;;;;;;;0.47;0.47;;;;;;;13.89;54.96;101624.44;5044818;28;20087;-87
2021/11/07 04:38:19;;;;;;;0.10;0.10;;;;;;;13.96;55.48;101598.53;5039594;28;20112;-85
2021/11/07 04:40:46;;;;;;;0.15;0.15;;;;;;;14.00;55.62;101615.31;5049333;28;20037;-85
2021/11/07 04:43:13;;;;;;;0.10;0.10;;;;;;;14.02;55.48;101619.69;5043403;28;20079;-87
2021/11/07 04:45:39;;;;;;;0.10;0.10;;;;;;;13.99;55.32;101608.22;5039336;28;20036;-86
2021/11/07 04:48:05;;;;;;;0.10;0.10;;;;;;;13.95;56.04;101596.75;5036310;28;20144;-86
2021/11/07 04:50:36;;;;;;;0.10;0.10;;;;;;;14.00;56.02;101599.34;5039674;28;20072;-86
2021/11/07 04:53:07;;;;;;;0.10;0.10;;;;;;;14.03;56.25;101593.91;5039915;28;20032;-87
2021/11/07 04:55:36;;;;;;;0.25;0.25;;;;;;;14.02;56.38;101582.41;5035888;28;20025;-86
2021/11/07 04:58:04;;;;;;;0.20;0.20;;;;;;;13.98;56.61;101593.16;5049557;28;20029;-88
2021/11/07 05:00:32;;;;;;;0.77;0.77;;;;;;;13.87;56.41;101615.59;5042555;28;20033;-87
2021/11/07 05:03:01;;;;;;;5.93;2.60;;;;;;;13.93;56.62;101611.03;5035743;28;20033;-86
2021/11/07 05:05:28;;;;;;;0.10;0.10;;;;;;;14.00;55.74;101599.34;5041505;28;20030;-85
2021/11/07 05:07:55;;;;;;;0.10;0.10;;;;;;;13.84;55.81;101589.00;5035581;28;20050;-86
2021/11/07 05:10:23;;;;;;;0.10;0.10;;;;;;;13.82;55.19;101600.59;5049057;28;20548;-87
2021/11/07 05:12:50;;;;;;;0.10;0.10;;;;;;;13.85;55.01;101617.38;5033608;28;20055;-85
2021/11/07 05:15:17;;;;;;;0.10;0.10;;;;;;;13.94;55.00;101610.13;5041752;28;20033;-86
2021/11/07 05:17:43;;;;;;;0.55;0.55;;;;;;;13.98;54.60;101606.47;5042090;28;20554;-86
2021/11/07 05:20:12;;;;;;;0.20;0.20;;;;;;;13.97;54.30;101602.03;5044160;28;20631;-86
2021/11/07 05:22:39;;;;;;;0.10;0.10;;;;;;;13.95;54.64;101611.88;5042226;28;20468;-86
2021/11/07 05:25:07;;;;;;;0.73;0.73;;;;;;;13.96;54.51;101603.00;5036868;28;20029;-84
2021/11/07 05:27:34;;;;;;;0.10;0.10;;;;;;;13.86;54.02;101612.97;5036967;28;20029;-86
2021/11/07 05:30:03;;;;;;;0.65;0.65;;;;;;;13.94;53.73;101604.78;5044745;28;20476;-85
2021/11/07 05:32:30;;;;;;;0.30;0.30;;;;;;;13.93;53.74;101603.91;5040930;28;20059;-85
2021/11/07 05:34:56;;;;;;;0.10;0.10;;;;;;;13.84;54.00;101610.31;5038146;28;20048;-86
2021/11/07 05:37:23;;;;;;;0.10;0.10;;;;;;;13.79;53.77;101617.53;5038147;28;20028;-86
2021/11/07 05:39:50;;;;;;;0.30;0.30;;;;;;;13.74;53.71;101625.63;5034926;28;20496;-86
2021/11/07 05:42:16;;;;;;;2.08;1.98;;;;;;;13.67;53.54;101628.44;5039935;28;20025;-86
2021/11/07 05:44:43;;;;;;;0.10;0.10;;;;;;;13.57;52.73;101617.97;5040550;28;20030;-87
2021/11/07 05:47:09;;;;;;;0.57;0.45;;;;;;;13.54;53.11;101627.81;5046573;28;20155;-86
2021/11/07 05:49:36;;;;;;;0.10;0.10;;;;;;;13.42;51.60;101636.91;5047464;28;20044;-85
2021/11/07 05:52:04;;;;;;;0.10;0.10;;;;;;;13.54;52.09;101623.34;5044018;28;20141;-86
2021/11/07 05:54:30;;;;;;;0.10;0.10;;;;;;;13.65;52.57;101622.28;5039741;28;20017;-86
2021/11/07 05:56:58;;;;;;;0.10;0.10;;;;;;;13.59;52.82;101616.16;5050969;28;20074;-86
2021/11/07 05:59:24;;;;;;;0.10;0.10;;;;;;;13.46;52.65;101619.97;5054780;28;20055;-86
2021/11/07 06:01:50;;;;;;;0.10;0.10;;;;;;;13.46;52.33;101635.94;5039272;28;20037;-87
2021/11/07 06:04:17;;;;;;;0.10;0.10;;;;;;;13.47;52.42;101629.72;5050254;28;20033;-86
2021/11/07 06:06:43;;;;;;;0.10;0.10;;;;;;;13.54;52.94;101626.00;5036934;28;20049;-87
2021/11/07 06:09:09;;;;;;;0.35;0.35;;;;;;;13.33;53.27;101629.06;5037978;28;20044;-86
2021/11/07 06:11:35;;;;;;;0.47;0.47;;;;;;;13.35;53.54;101649.41;5037084;28;20469;-84
2021/11/07 06:14:02;;;;;;;0.45;0.45;;;;;;;13.24;53.44;101649.59;5035186;28;20469;-87
2021/11/07 06:16:28;;;;;;;1.38;1.05;;;;;;;13.26;54.12;101638.97;5048826;28;20423;-87
2021/11/07 06:18:54;;;;;;;0.10;0.10;;;;;;;13.26;53.96;101639.81;5043326;28;20029;-87
2021/11/07 06:21:22;;;;;;;0.10;0.10;;;;;;;13.33;54.36;101639.72;5035658;28;20064;-87
2021/11/07 06:23:49;;;;;;;1.77;1.67;;;;;;;13.26;54.46;101639.81;5043424;28;20021;-86
2021/11/07 06:26:15;;;;;;;0.15;0.15;;;;;;;13.26;54.67;101645.16;5048333;28;20036;-86
2021/11/07 06:28:42;;;;;;;0.10;0.10;;;;;;;13.30;54.01;101645.09;5050009;28;20032;-86
2021/11/07 06:31:12;;;;;;;0.10;0.10;;;;;;;13.27;54.45;101654.00;5041898;28;20061;-87
2021/11/07 06:33:39;;;;;;;0.20;0.20;;;;;;;13.17;54.79;101658.63;5039217;28;20091;-87
2021/11/07 06:36:05;;;;;;;1.58;0.77;;;;;;;13.16;54.75;101650.66;5047064;28;20036;-86
2021/11/07 06:38:32;;;;;;;0.10;0.10;;;;;;;13.13;54.38;101642.75;5044336;28;20026;-85
2021/11/07 06:40:59;;;;;;;0.10;0.10;;;;;;;13.22;54.76;101638.13;5040701;28;20093;-87
2021/11/07 06:43:26;;;;;;;0.10;0.10;;;;;;;13.17;54.95;101648.00;5042535;28;20029;-85
2021/11/07 06:45:52;;;;;;;0.10;0.10;;;;;;;13.11;54.77;101656.09;5050515;28;20025;-87
2021/11/07 06:48:19;;;;;;;2.63;1.75;;;;;;;13.07;54.47;101646.38;5044658;28;20507;-88
2021/11/07 06:50:45;;;;;;;0.10;0.10;;;;;;;13.07;54.72;101654.34;5048790;28;20058;-87
2021/11/07 06:53:11;;;;;;;0.10;0.10;;;;;;;13.13;54.77;101670.22;5050667;28;20025;-87
2021/11/07 06:55:37;;;;;;;0.10;0.10;;;;;;;13.19;54.37;101655.94;5041942;28;20498;-86
2021/11/07 06:58:04;;;;;;;0.10;0.10;;;;;;;13.19;54.77;101667.44;5037477;28;20030;-87
2021/11/07 07:00:30;;;;;;;0.10;0.10;;;;;;;13.13;54.35;101667.56;5039187;28;20072;-88
2021/11/07 07:02:57;;;;;;;2.33;2.20;;;;;;;13.02;54.27;101677.50;5041574;28;20492;-87
2021/11/07 07:05:24;;;;;;;0.10;0.10;;;;;;;13.07;54.48;101659.69;5042416;28;20530;-87
2021/11/07 07:07:56;;;;;;;0.10;0.10;;;;;;;13.12;54.56;101671.13;5037128;28;20033;-86
2021/11/07 07:10:28;;;;;;;0.20;0.20;;;;;;;13.08;54.04;101666.75;5034598;28;20546;-86
2021/11/07 07:13:02;;;;;;;;;;;;;;;13.16;54.27;101659.53;5040998;28;20042;-88
2021/11/07 07:15:33;;;;;;;0.10;0.10;;;;;;;13.09;54.51;101668.53;5035599;28;20283;-86
2021/11/07 07:18:44;;;;;;;0.10;0.10;;;;;;;13.09;54.12;101661.41;5034313;28;20033;-88
2021/11/07 07:21:31;;;;;;;0.10;0.10;;;;;;;13.17;54.39;101671.03;5050046;28;20055;-87
2021/11/07 07:26:37;;;;;;;0.10;0.10;;;;;;;13.25;54.18;101664.69;5060626;27;20482;-86
2021/11/07 07:31:56;;;;;;;0.10;0.10;;;;;;;13.40;54.42;101666.22;5066477;28;20940;-87
2021/11/07 07:34:24;;;;;;;1.35;1.33;;;;;;;13.24;54.81;101662.91;5045791;28;20451;-86
2021/11/07 07:36:52;;;;;;;0.10;0.10;;;;;;;13.30;54.33;101672.59;5047824;28;20119;-86
2021/11/07 07:39:19;;;;;;;0.10;0.10;;;;;;;13.37;54.70;101673.34;5049675;28;20040;-88
2021/11/07 07:41:52;;;;;;;0.10;0.10;;;;;;;13.34;54.86;101668.94;5048904;28;20088;-88
2021/11/07 07:44:19;;;;;;;0.10;0.10;;;;;;;13.31;54.58;101662.81;5048282;28;20033;-87
2021/11/07 07:46:46;;;;;;;0.10;0.10;;;;;;;13.29;54.89;101680.59;5045601;28;20029;-88
2021/11/07 07:49:14;;;;;;;0.03;0.03;;;;;;;13.26;54.68;101673.56;5046414;28;20091;-86
2021/11/07 07:51:41;;;;;;;0.10;0.10;;;;;;;13.25;54.50;101683.31;5049413;28;20044;-87
2021/11/07 07:54:07;;;;;;;0.10;0.10;;;;;;;13.35;54.67;101677.84;5048919;28;20088;-86
2021/11/07 07:56:35;;;;;;;0.10;0.10;;;;;;;13.30;53.87;101683.22;5047655;28;20067;-87
2021/11/07 07:59:02;;;;;;;0.10;0.10;;;;;;;13.25;54.58;101683.31;5042055;28;20041;-87
2021/11/07 08:01:29;;;;;;;0.10;0.10;;;;;;;13.42;54.22;101682.16;5045033;28;20029;-85
2021/11/07 08:03:55;;;;;;;0.10;0.10;;;;;;;13.48;54.19;101684.69;5049006;28;20040;-88
2021/11/07 08:06:22;;;;;;;0.10;0.10;;;;;;;13.54;54.10;101692.56;5049617;28;20044;-87
2021/11/07 08:08:49;;;;;;;0.10;0.10;;;;;;;13.62;53.73;101697.78;5049281;28;20116;-88
2021/11/07 08:11:15;;;;;;;0.40;0.35;;;;;;;13.69;54.23;101698.53;5048515;28;20033;-88
2021/11/07 08:13:42;;;;;;;0.30;0.30;;;;;;;13.46;53.74;101697.19;5052275;28;20033;-85
2021/11/07 08:16:09;;;;;;;0.35;0.35;;;;;;;13.62;53.69;101694.22;5049160;28;20032;-86
2021/11/07 08:18:36;;;;;;;0.10;0.10;;;;;;;13.68;53.83;101689.66;5047130;28;20033;-88
2021/11/07 08:21:02;;;;;;;0.20;0.20;;;;;;;13.69;53.43;101685.22;5052170;28;20377;-87
2021/11/07 08:23:28;;;;;;;0.22;0.22;;;;;;;13.67;53.39;101687.00;5053163;28;20054;-85
2021/11/07 08:25:56;;;;;;;0.10;0.10;;;;;;;13.59;53.36;101696.06;5059577;28;20147;-87
2021/11/07 08:28:22;;;;;;;0.70;0.70;;;;;;;13.66;53.75;101691.47;5053143;28;20017;-87
2021/11/07 08:30:53;;;;;;;2.00;0.85;;;;;;;13.68;53.57;101688.78;5052224;28;20041;-86
2021/11/07 08:33:20;;;;;;;0.00;0.00;;;;;;;13.71;53.54;101686.06;5048777;28;20044;-87
2021/11/07 08:35:47;;;;;;;0.63;0.63;;;;;;;13.76;53.28;101678.84;5040971;28;20041;-90
2021/11/07 08:38:25;;;;;;;0.10;0.10;;;;;;;13.82;53.26;101692.06;5044536;28;20068;-88
2021/11/07 08:40:54;;;;;;;2.17;1.05;;;;;;;13.73;53.19;101684.22;5037963;28;20029;-87
2021/11/07 09:08:27;;;;;;;0.10;0.10;;;;;;;13.98;52.78;101686.41;5040494;28;20042;-90
2021/11/07 09:10:58;;;;;;;0.10;0.10;;;;;;;14.03;52.81;101689.84;5037416;28;20112;-90
2021/11/07 09:13:24;;;;;;;0.10;0.10;;;;;;;13.93;51.94;101683.81;5016327;28;20076;-90
2021/11/07 09:15:51;;;;;;;0.10;0.10;;;;;;;13.95;51.71;101687.34;5030000;28;20022;-91
2021/11/07 09:18:18;;;;;;;0.10;0.10;;;;;;;14.08;52.03;101703.94;5043198;28;20030;-89
2021/11/07 09:20:52;;;;;;;8.50;0.98;;;;;;;13.99;51.90;101706.81;5024254;28;20552;-90
2021/11/07 09:23:27;;;;;;;0.20;0.20;;;;;;;14.13;51.81;101702.09;5040879;28;20033;-90
2021/11/07 09:28:47;;;;;;;0.10;0.10;;;;;;;14.24;51.81;101700.06;5072624;28;20422;-90
2021/11/07 09:31:30;;;;;;;0.10;0.10;;;;;;;14.22;51.22;101691.22;5056701;28;20365;-90
2021/11/07 09:39:50;;;;;;;0.10;0.10;;;;;;;14.19;51.05;101699.28;5080906;28;20133;-84
2021/11/07 09:45:10;;;;;;;0.60;0.60;;;;;;;14.35;51.01;101685.63;5056840;28;20438;-86
2021/11/07 09:47:41;;;;;;;0.10;0.10;;;;;;;14.29;50.87;101702.59;5057902;28;20028;-85
2021/11/07 09:50:12;;;;;;;0.20;0.20;;;;;;;14.40;50.67;101702.38;5064944;28;20123;-85
2021/11/07 09:52:43;;;;;;;0.20;0.20;;;;;;;14.55;50.61;101702.06;5056040;28;20057;-85
2021/11/07 09:55:10;;;;;;;0.10;0.10;;;;;;;14.45;50.10;101707.63;5061653;28;20043;-87
2021/11/07 09:57:37;;;;;;;0.10;0.10;;;;;;;14.46;50.12;101704.91;5074016;28;20028;-83
2021/11/07 10:00:11;;;;;;;0.20;0.20;;;;;;;14.39;50.00;101706.84;5060125;28;20087;-83
2021/11/07 10:02:38;;;;;;;0.10;0.10;;;;;;;14.54;50.05;101705.63;5062530;28;20090;-86
2021/11/07 10:05:05;;;;;;;0.10;0.10;;;;;;;14.65;50.19;101723.19;5054586;28;20025;-86
2021/11/07 10:07:34;;;;;;;0.10;0.10;;;;;;;14.62;49.35;101709.91;5063795;28;20036;-84
2021/11/07 10:10:18;;;;;;;0.20;0.20;;;;;;;14.79;49.98;101717.53;5061416;28;20035;-82
2021/11/07 10:12:48;;;;;;;22.48;3.03;;;;;;;14.67;49.63;101721.38;5059226;28;20037;-82
2021/11/07 10:18:09;;;;;;;0.10;0.10;;;;;;;14.81;49.74;101705.03;5057319;28;20915;-84
2021/11/07 10:20:45;;;;;;;0.90;0.90;;;;;;;14.95;49.56;101715.38;5036217;28;20033;-84
2021/11/07 10:23:21;;;;;;;0.17;0.17;;;;;;;15.13;49.21;101716.72;5039757;28;20033;-86
2021/11/07 10:29:01;;;;;;;0.10;0.10;;;;;;;14.86;48.33;101720.00;5008339;27;2036190;-86
2021/11/07 10:40:47;;;;;;;0.75;0.43;;;;;;;14.94;48.29;101710.94;5058793;28;20048;-85
2021/11/07 10:43:17;;;;;;;0.00;0.00;;;;;;;14.69;48.46;101700.88;5060167;28;20055;-83
2021/11/07 10:54:17;;;;;;;2.28;1.95;;;;;;;14.40;48.61;101721.03;5066404;28;20063;-84
2021/11/07 10:57:07;;;;;;;0.10;0.10;;;;;;;14.71;48.55;101710.59;5038411;28;20064;-84
2021/11/07 10:59:33;;;;;;;0.10;0.10;;;;;;;14.66;48.73;101711.63;5036066;28;20030;-88
2021/11/07 11:02:00;;;;;;;0.10;0.10;;;;;;;14.80;48.56;101714.81;5039034;28;20056;-88
2021/11/07 11:04:26;;;;;;;0.10;0.10;;;;;;;15.01;48.38;101702.75;5038238;28;20128;-89
2021/11/07 11:06:55;;;;;;;0.10;0.10;;;;;;;15.30;48.56;101709.16;5036368;28;20124;-87
2021/11/07 11:09:26;;;;;;;0.30;0.30;;;;;;;15.34;48.29;101696.63;5035844;28;20610;-88
2021/11/07 11:12:07;;;;;;;0.13;0.13;;;;;;;15.42;48.17;101699.94;5037644;28;20061;-87
2021/11/07 11:14:39;;;;;;;1.55;1.45;;;;;;;15.06;48.20;101710.66;5031647;28;20204;-87
2021/11/07 11:17:20;;;;;;;0.15;0.15;;;;;;;15.17;47.69;101697.03;5039960;28;20100;-87
2021/11/07 11:20:21;;;;;;;0.55;0.55;;;;;;;15.20;47.28;101703.19;5037665;28;20024;-85
2021/11/07 11:23:05;;;;;;;0.47;0.47;;;;;;;15.43;47.14;101693.69;5039536;28;20046;-87
2021/11/07 11:25:54;;;;;;;0.10;0.10;;;;;;;15.24;47.58;101713.78;5029448;28;20117;-83
2021/11/07 11:28:58;;;;;;;8.85;1.30;;;;;;;15.30;47.27;101703.84;5036853;28;20049;-86
2021/11/07 11:31:20;;;;;;;0.75;0.75;;;;;;;15.28;47.30;101708.31;5036351;28;20103;-87
2021/11/07 11:33:52;;;;;;;0.10;0.10;;;;;;;15.36;47.27;101709.00;5033583;28;20030;-87
2021/11/07 11:39:13;;;;;;;0.10;0.10;;;;;;;15.72;46.60;101702.69;5066886;28;20510;-86
2021/11/07 11:41:49;;;;;;;2.17;1.98;;;;;;;15.70;46.60;101696.50;5064726;28;20052;-81
2021/11/07 11:44:17;;;;;;;0.40;0.40;;;;;;;15.87;46.39;101681.84;5060133;28;20033;-84
2021/11/07 11:46:58;;;;;;;0.10;0.10;;;;;;;15.96;46.18;101692.25;5061603;28;20082;-86
2021/11/07 11:49:59;;;;;;;0.00;0.00;;;;;;;15.76;45.03;101719.53;5065367;28;20124;-87
2021/11/07 11:52:27;;;;;;;0.10;0.10;;;;;;;15.71;45.38;101692.94;5067421;28;20048;-82
2021/11/07 11:57:51;;;;;;;0.10;0.10;;;;;;;15.39;46.36;101707.16;5071220;27;20427;-90
2021/11/07 12:03:39;;;;;;;2.90;2.38;;;;;;;15.47;47.28;101690.00;5067697;28;20040;-86
2021/11/07 12:09:54;;;;;;;1.65;1.55;;;;;;;15.25;47.78;101704.84;5069218;27;20417;-88
2021/11/07 12:12:25;;;;;;;0.17;0.17;;;;;;;15.02;48.42;101687.63;5067606;28;20041;-84
2021/11/07 12:17:41;;;;;;;0.10;0.10;;;;;;;14.90;48.58;101709.28;5031688;28;20392;-88
2021/11/07 12:20:29;;;;;;;2.17;0.95;;;;;;;14.80;48.53;101690.81;5029234;28;20030;-89
2021/11/07 12:23:17;;;;;;;0.10;0.10;;;;;;;14.94;48.66;101687.84;5028103;28;20029;-88
2021/11/07 12:25:44;;;;;;;0.13;0.13;;;;;;;14.90;48.38;101704.81;5023021;28;20042;-88
2021/11/07 12:28:11;;;;;;;0.10;0.10;;;;;;;14.97;48.65;101697.56;5008570;28;20077;-88
2021/11/07 12:30:40;;;;;;;0.10;0.10;;;;;;;14.87;48.44;101704.91;5003496;28;20045;-90
2021/11/07 12:33:19;;;;;;;0.10;0.10;;;;;;;14.92;48.39;101696.78;5006308;28;20030;-90
2021/11/07 12:36:01;;;;;;;0.10;0.10;;;;;;;15.08;48.44;101675.91;5001231;28;20078;-86
2021/11/07 12:41:22;;;;;;;0.10;0.10;;;;;;;15.44;47.93;101679.44;5002857;28;20049;-89
2021/11/07 12:43:52;;;;;;;0.20;0.20;;;;;;;15.52;47.59;101688.09;5008990;28;20476;-88
2021/11/07 12:59:57;;;;;;;0.10;0.10;;;;;;;14.17;55.76;101701.09;5042337;28;20444;-87
2021/11/07 13:02:32;;;;;;;0.10;0.10;;;;;;;13.98;56.98;101713.03;5034618;28;20034;-87
2021/11/07 13:08:05;;;;;;;0.10;0.10;;;;;;;13.65;56.57;101716.34;5065075;27;20391;-86
2021/11/07 13:19:16;;;;;;;0.70;0.70;;;;;;;13.48;56.25;101710.44;5067765;27;20842;-87
2021/11/07 13:24:42;;;;;;;0.17;0.17;;;;;;;13.50;56.34;101706.00;5063523;28;20060;-88
2021/11/07 13:27:13;;;;;;;0.10;0.10;;;;;;;13.62;56.01;101699.53;5047633;28;20068;-88
2021/11/07 13:30:02;;;;;;;0.22;0.22;;;;;;;13.68;55.56;101695.00;5046646;28;20504;-86
2021/11/07 13:32:46;;;;;;;0.10;0.10;;;;;;;13.60;55.26;101699.56;5046050;28;20106;-86
2021/11/07 13:35:17;;;;;;;0.30;0.30;;;;;;;13.74;55.27;101686.88;5046369;28;20033;-87
2021/11/07 13:40:32;;;;;;;0.77;0.77;;;;;;;13.88;55.51;101699.94;5058721;28;20421;-87
2021/11/07 13:43:19;;;;;;;0.90;0.90;;;;;;;13.80;55.59;101712.50;5034407;28;20026;-86
2021/11/07 13:45:52;;;;;;;0.03;0.03;;;;;;;13.65;56.79;101711.00;5039507;28;20128;-87
2021/11/07 13:48:23;;;;;;;0.10;0.10;;;;;;;13.36;56.86;101715.06;5038710;28;20044;-86